Aérodrome :
LOGIN :

S'inscrire | Disclaimer

   EN    FR    IT 

 










Légende :    VFR   VFR Marginal   IFR   IFR Intensif   IFR Très Intensif
Visi : 
Plafond : 
>= 8 km
>= 3000ft
5 à 8 km
1000 à 3000 ft
1500m à 5 km
500 à 1000 ft
800 à 1500m
200 à 500 ft
< 800m
< 200 ft
Symboles :   Orages  Brouillard  Fortes neiges  Fortes précipitations  Vent > 20 kt
SIGMETs :   Divers  Orages  Givrage  Turbulence  Onde Orograph.  Cendres Volcan.







- Altitude de l'aérodrome : 302 ft
- Code IATA : CGN


EDDK - Cologne Bonn

DERNIER METAR :
  • 191050Z 14008KT 100V160 CAVOK 18/12 Q1012 NOSIG

METARs EXPIRÉS :
  • 191020Z 14008KT 110V170 CAVOK 18/12 Q1012 NOSIG
  • 190950Z 14008KT CAVOK 17/11 Q1012 NOSIG
  • 190920Z 14007KT 100V170 CAVOK 16/11 Q1012 NOSIG
  • 190850Z 14007KT 100V160 CAVOK 15/11 Q1013 NOSIG
  • 190820Z 12005KT 060V150 CAVOK 14/10 Q1013 NOSIG

TAF TAF EDDK
Valide du 19 à 06h jusqu'au 20 à 12h UTC


190500Z 1906/2012 13004KT CAVOK
BECMG 1907/1909 13009KT
TEMPO 2005/2007 RA
BECMG 2010/2012 22010KT
Pas de NOTAMs connus pour ce terrain.



MET'MAP, la Météo Aéronautique d'un coup d'oeil ! - Copyright ORBIFLY Décembre 2007 - Disclaimer

ORBIFLY MET'MAP TEAM :

Programmation & Développement : Alexandra Zaïnal
Conception & Développement : Baudouin d'Aumeries
Co-Programmation & Développement : Marc-Olivier Méhu
Soutien technique & logistique : Manuel Goepfert

Contact : metmap@orbifly.com




SOURCES & CREDITS :

   NOAA